sensor_id;sensor_type;location;lat;lon;timestamp;P1;durP1;ratioP1;P2;durP2;ratioP2
7607;SDS011;3845;48.120;11.534;2023-04-12T00:01:58;3.00;;;1.93;;
7607;SDS011;3845;48.120;11.534;2023-04-12T00:04:23;2.50;;;1.93;;
7607;SDS011;3845;48.120;11.534;2023-04-12T00:06:51;2.37;;;1.70;;
7607;SDS011;3845;48.120;11.534;2023-04-12T00:09:18;2.93;;;1.80;;
7607;SDS011;3845;48.120;11.534;2023-04-12T00:11:43;3.37;;;1.80;;
7607;SDS011;3845;48.120;11.534;2023-04-12T00:14:08;3.70;;;2.10;;
7607;SDS011;3845;48.120;11.534;2023-04-12T00:16:34;2.73;;;1.90;;
7607;SDS011;3845;48.120;11.534;2023-04-12T00:19:01;2.30;;;1.80;;
7607;SDS011;3845;48.120;11.534;2023-04-12T00:21:27;2.13;;;1.53;;
7607;SDS011;3845;48.120;11.534;2023-04-12T00:23:53;2.33;;;1.70;;
7607;SDS011;3845;48.120;11.534;2023-04-12T00:26:19;2.53;;;1.80;;
7607;SDS011;3845;48.120;11.534;2023-04-12T00:28:45;2.63;;;1.90;;
7607;SDS011;3845;48.120;11.534;2023-04-12T00:31:11;3.17;;;1.70;;
7607;SDS011;3845;48.120;11.534;2023-04-12T00:33:36;2.20;;;1.77;;
7607;SDS011;3845;48.120;11.534;2023-04-12T00:36:01;3.77;;;1.93;;
7607;SDS011;3845;48.120;11.534;2023-04-12T00:38:27;2.97;;;1.90;;
7607;SDS011;3845;48.120;11.534;2023-04-12T00:40:52;2.23;;;1.80;;
7607;SDS011;3845;48.120;11.534;2023-04-12T00:43:17;2.83;;;1.80;;
7607;SDS011;3845;48.120;11.534;2023-04-12T00:45:43;1.83;;;1.70;;
7607;SDS011;3845;48.120;11.534;2023-04-12T00:48:09;2.33;;;1.87;;
7607;SDS011;3845;48.120;11.534;2023-04-12T00:50:35;2.90;;;1.77;;
7607;SDS011;3845;48.120;11.534;2023-04-12T00:53:01;2.27;;;1.90;;
7607;SDS011;3845;48.120;11.534;2023-04-12T00:55:27;2.20;;;1.80;;
7607;SDS011;3845;48.120;11.534;2023-04-12T00:57:52;2.20;;;1.70;;
7607;SDS011;3845;48.120;11.534;2023-04-12T01:00:18;3.07;;;1.90;;
7607;SDS011;3845;48.120;11.534;2023-04-12T01:02:44;3.07;;;1.93;;
7607;SDS011;3845;48.120;11.534;2023-04-12T01:05:18;3.00;;;1.80;;
7607;SDS011;3845;48.120;11.534;2023-04-12T01:13:26;4.13;;;1.90;;
7607;SDS011;3845;48.120;11.534;2023-04-12T01:16:55;2.50;;;1.80;;
7607;SDS011;3845;48.120;11.534;2023-04-12T01:18:52;2.97;;;1.60;;
7607;SDS011;3845;48.120;11.534;2023-04-12T01:21:27;3.17;;;1.80;;
7607;SDS011;3845;48.120;11.534;2023-04-12T01:26:47;2.17;;;1.70;;
7607;SDS011;3845;48.120;11.534;2023-04-12T01:29:14;1.70;;;1.40;;
7607;SDS011;3845;48.120;11.534;2023-04-12T01:31:44;2.63;;;1.73;;
7607;SDS011;3845;48.120;11.534;2023-04-12T01:34:13;2.13;;;1.77;;
7607;SDS011;3845;48.120;11.534;2023-04-12T01:36:39;2.20;;;1.60;;
7607;SDS011;3845;48.120;11.534;2023-04-12T01:39:06;2.90;;;1.50;;
7607;SDS011;3845;48.120;11.534;2023-04-12T01:41:32;3.43;;;1.70;;
7607;SDS011;3845;48.120;11.534;2023-04-12T01:43:57;2.23;;;1.57;;
7607;SDS011;3845;48.120;11.534;2023-04-12T01:46:22;2.37;;;1.53;;
7607;SDS011;3845;48.120;11.534;2023-04-12T01:48:49;1.90;;;1.43;;
7607;SDS011;3845;48.120;11.534;2023-04-12T01:54:02;1.53;;;1.30;;
7607;SDS011;3845;48.120;11.534;2023-04-12T01:56:34;2.40;;;1.63;;
7607;SDS011;3845;48.120;11.534;2023-04-12T01:59:00;2.30;;;1.60;;
7607;SDS011;3845;48.120;11.534;2023-04-12T02:01:26;2.13;;;1.60;;
7607;SDS011;3845;48.120;11.534;2023-04-12T02:03:53;2.07;;;1.50;;
7607;SDS011;3845;48.120;11.534;2023-04-12T02:06:19;2.27;;;1.50;;
7607;SDS011;3845;48.120;11.534;2023-04-12T02:08:45;2.07;;;1.50;;
7607;SDS011;3845;48.120;11.534;2023-04-12T02:11:11;2.43;;;1.40;;
7607;SDS011;3845;48.120;11.534;2023-04-12T02:13:36;1.97;;;1.40;;
7607;SDS011;3845;48.120;11.534;2023-04-12T02:16:02;1.40;;;1.20;;
7607;SDS011;3845;48.120;11.534;2023-04-12T02:18:27;2.90;;;1.43;;
7607;SDS011;3845;48.120;11.534;2023-04-12T02:20:53;2.27;;;1.57;;
7607;SDS011;3845;48.120;11.534;2023-04-12T02:23:18;3.57;;;1.20;;
7607;SDS011;3845;48.120;11.534;2023-04-12T02:25:44;2.13;;;1.43;;
7607;SDS011;3845;48.120;11.534;2023-04-12T02:28:10;2.73;;;1.40;;
7607;SDS011;3845;48.120;11.534;2023-04-12T02:30:37;1.87;;;1.30;;
7607;SDS011;3845;48.120;11.534;2023-04-12T02:33:02;1.40;;;1.23;;
7607;SDS011;3845;48.120;11.534;2023-04-12T02:35:30;2.87;;;1.40;;
7607;SDS011;3845;48.120;11.534;2023-04-12T02:37:55;1.73;;;1.40;;
7607;SDS011;3845;48.120;11.534;2023-04-12T02:40:21;2.13;;;1.47;;
7607;SDS011;3845;48.120;11.534;2023-04-12T02:42:47;1.60;;;1.23;;
7607;SDS011;3845;48.120;11.534;2023-04-12T02:45:12;1.67;;;1.30;;
7607;SDS011;3845;48.120;11.534;2023-04-12T02:47:38;2.40;;;1.60;;
7607;SDS011;3845;48.120;11.534;2023-04-12T02:50:05;1.80;;;1.43;;
7607;SDS011;3845;48.120;11.534;2023-04-12T02:52:30;3.33;;;1.40;;
7607;SDS011;3845;48.120;11.534;2023-04-12T02:54:57;2.40;;;1.43;;
7607;SDS011;3845;48.120;11.534;2023-04-12T02:57:22;3.73;;;1.60;;
7607;SDS011;3845;48.120;11.534;2023-04-12T02:59:49;2.43;;;1.40;;
7607;SDS011;3845;48.120;11.534;2023-04-12T03:02:17;2.37;;;1.53;;
7607;SDS011;3845;48.120;11.534;2023-04-12T03:04:43;2.23;;;1.40;;
7607;SDS011;3845;48.120;11.534;2023-04-12T03:07:10;1.83;;;1.40;;
7607;SDS011;3845;48.120;11.534;2023-04-12T03:09:36;3.20;;;1.60;;
7607;SDS011;3845;48.120;11.534;2023-04-12T03:12:02;1.97;;;1.60;;
7607;SDS011;3845;48.120;11.534;2023-04-12T03:14:28;1.90;;;1.57;;
7607;SDS011;3845;48.120;11.534;2023-04-12T03:16:53;1.63;;;1.50;;
7607;SDS011;3845;48.120;11.534;2023-04-12T03:19:18;2.33;;;1.70;;
7607;SDS011;3845;48.120;11.534;2023-04-12T03:21:44;3.23;;;1.80;;
7607;SDS011;3845;48.120;11.534;2023-04-12T03:24:10;2.10;;;1.50;;
7607;SDS011;3845;48.120;11.534;2023-04-12T03:26:35;1.93;;;1.60;;
7607;SDS011;3845;48.120;11.534;2023-04-12T03:29:01;2.53;;;1.53;;
7607;SDS011;3845;48.120;11.534;2023-04-12T03:31:32;2.47;;;1.43;;
7607;SDS011;3845;48.120;11.534;2023-04-12T03:33:58;3.00;;;1.47;;
7607;SDS011;3845;48.120;11.534;2023-04-12T03:36:24;3.53;;;1.97;;
7607;SDS011;3845;48.120;11.534;2023-04-12T03:38:51;2.97;;;1.60;;
7607;SDS011;3845;48.120;11.534;2023-04-12T03:41:16;2.40;;;1.57;;
7607;SDS011;3845;48.120;11.534;2023-04-12T03:43:41;2.70;;;1.67;;
7607;SDS011;3845;48.120;11.534;2023-04-12T03:46:07;2.33;;;1.30;;
7607;SDS011;3845;48.120;11.534;2023-04-12T03:48:32;2.30;;;1.43;;
7607;SDS011;3845;48.120;11.534;2023-04-12T03:50:57;2.47;;;1.70;;
7607;SDS011;3845;48.120;11.534;2023-04-12T03:53:24;2.60;;;1.50;;
7607;SDS011;3845;48.120;11.534;2023-04-12T03:55:51;2.20;;;1.70;;
7607;SDS011;3845;48.120;11.534;2023-04-12T03:58:20;3.53;;;1.83;;
7607;SDS011;3845;48.120;11.534;2023-04-12T04:00:46;2.33;;;1.70;;
7607;SDS011;3845;48.120;11.534;2023-04-12T04:03:13;3.20;;;2.07;;
7607;SDS011;3845;48.120;11.534;2023-04-12T04:05:38;3.20;;;1.90;;
7607;SDS011;3845;48.120;11.534;2023-04-12T04:08:04;2.17;;;1.47;;
7607;SDS011;3845;48.120;11.534;2023-04-12T04:10:31;2.57;;;1.60;;
7607;SDS011;3845;48.120;11.534;2023-04-12T04:12:56;2.43;;;1.60;;
7607;SDS011;3845;48.120;11.534;2023-04-12T04:15:21;2.27;;;1.60;;
7607;SDS011;3845;48.120;11.534;2023-04-12T04:17:49;2.17;;;1.57;;
7607;SDS011;3845;48.120;11.534;2023-04-12T04:20:14;2.20;;;1.50;;
7607;SDS011;3845;48.120;11.534;2023-04-12T04:22:40;2.37;;;1.30;;
7607;SDS011;3845;48.120;11.534;2023-04-12T04:25:09;2.33;;;1.23;;
7607;SDS011;3845;48.120;11.534;2023-04-12T04:27:34;3.63;;;1.50;;
7607;SDS011;3845;48.120;11.534;2023-04-12T04:30:02;2.77;;;1.40;;
7607;SDS011;3845;48.120;11.534;2023-04-12T04:32:29;3.10;;;2.13;;
7607;SDS011;3845;48.120;11.534;2023-04-12T04:34:55;3.53;;;2.43;;
7607;SDS011;3845;48.120;11.534;2023-04-12T04:37:23;3.97;;;2.70;;
7607;SDS011;3845;48.120;11.534;2023-04-12T04:39:49;3.47;;;2.40;;
7607;SDS011;3845;48.120;11.534;2023-04-12T04:42:14;3.13;;;2.20;;
7607;SDS011;3845;48.120;11.534;2023-04-12T04:44:40;2.43;;;1.80;;
7607;SDS011;3845;48.120;11.534;2023-04-12T04:47:05;2.20;;;1.70;;
7607;SDS011;3845;48.120;11.534;2023-04-12T04:49:32;2.63;;;1.70;;
7607;SDS011;3845;48.120;11.534;2023-04-12T04:51:57;2.00;;;1.70;;
7607;SDS011;3845;48.120;11.534;2023-04-12T04:54:23;3.40;;;1.80;;
7607;SDS011;3845;48.120;11.534;2023-04-12T04:56:48;2.83;;;1.50;;
7607;SDS011;3845;48.120;11.534;2023-04-12T04:59:13;2.70;;;1.57;;
7607;SDS011;3845;48.120;11.534;2023-04-12T05:01:38;3.13;;;1.73;;
7607;SDS011;3845;48.120;11.534;2023-04-12T05:04:05;2.87;;;1.70;;
7607;SDS011;3845;48.120;11.534;2023-04-12T05:06:30;2.30;;;1.67;;
7607;SDS011;3845;48.120;11.534;2023-04-12T05:08:57;3.17;;;1.60;;
7607;SDS011;3845;48.120;11.534;2023-04-12T05:11:22;3.17;;;1.60;;
7607;SDS011;3845;48.120;11.534;2023-04-12T05:13:47;2.30;;;1.60;;
7607;SDS011;3845;48.120;11.534;2023-04-12T05:16:13;4.80;;;1.70;;
7607;SDS011;3845;48.120;11.534;2023-04-12T05:18:38;2.70;;;1.53;;
7607;SDS011;3845;48.120;11.534;2023-04-12T05:21:03;2.80;;;1.50;;
7607;SDS011;3845;48.120;11.534;2023-04-12T05:23:31;2.20;;;1.40;;
7607;SDS011;3845;48.120;11.534;2023-04-12T05:25:59;2.17;;;1.40;;
7607;SDS011;3845;48.120;11.534;2023-04-12T05:28:24;2.20;;;1.50;;
7607;SDS011;3845;48.120;11.534;2023-04-12T05:30:49;3.00;;;1.40;;
7607;SDS011;3845;48.120;11.534;2023-04-12T05:33:15;1.90;;;1.50;;
7607;SDS011;3845;48.120;11.534;2023-04-12T05:35:40;2.00;;;1.70;;
7607;SDS011;3845;48.120;11.534;2023-04-12T05:38:05;2.90;;;1.60;;
7607;SDS011;3845;48.120;11.534;2023-04-12T05:40:31;2.53;;;1.50;;
7607;SDS011;3845;48.120;11.534;2023-04-12T05:42:56;2.47;;;1.60;;
7607;SDS011;3845;48.120;11.534;2023-04-12T05:45:21;2.10;;;1.50;;
7607;SDS011;3845;48.120;11.534;2023-04-12T05:47:47;2.20;;;1.83;;
7607;SDS011;3845;48.120;11.534;2023-04-12T05:50:12;1.57;;;1.40;;
7607;SDS011;3845;48.120;11.534;2023-04-12T05:52:37;2.40;;;1.37;;
7607;SDS011;3845;48.120;11.534;2023-04-12T05:55:03;9.17;;;6.63;;
7607;SDS011;3845;48.120;11.534;2023-04-12T05:57:29;25.13;;;18.03;;
7607;SDS011;3845;48.120;11.534;2023-04-12T05:59:54;12.17;;;9.33;;
7607;SDS011;3845;48.120;11.534;2023-04-12T06:02:20;11.20;;;8.63;;
7607;SDS011;3845;48.120;11.534;2023-04-12T06:04:46;9.97;;;7.60;;
7607;SDS011;3845;48.120;11.534;2023-04-12T06:07:12;5.93;;;5.07;;
7607;SDS011;3845;48.120;11.534;2023-04-12T06:09:37;5.50;;;3.90;;
7607;SDS011;3845;48.120;11.534;2023-04-12T06:12:03;4.33;;;3.47;;
7607;SDS011;3845;48.120;11.534;2023-04-12T06:14:28;4.27;;;3.00;;
7607;SDS011;3845;48.120;11.534;2023-04-12T06:16:54;3.23;;;2.27;;
7607;SDS011;3845;48.120;11.534;2023-04-12T06:19:19;2.97;;;2.00;;
7607;SDS011;3845;48.120;11.534;2023-04-12T06:21:44;3.40;;;2.03;;
7607;SDS011;3845;48.120;11.534;2023-04-12T06:24:10;2.20;;;1.80;;
7607;SDS011;3845;48.120;11.534;2023-04-12T06:26:36;2.57;;;1.90;;
7607;SDS011;3845;48.120;11.534;2023-04-12T06:29:01;4.07;;;1.90;;
7607;SDS011;3845;48.120;11.534;2023-04-12T06:31:26;3.07;;;1.77;;
7607;SDS011;3845;48.120;11.534;2023-04-12T06:33:52;2.63;;;1.70;;
7607;SDS011;3845;48.120;11.534;2023-04-12T06:36:17;2.23;;;1.60;;
7607;SDS011;3845;48.120;11.534;2023-04-12T06:38:42;2.10;;;1.60;;
7607;SDS011;3845;48.120;11.534;2023-04-12T06:41:08;2.20;;;1.80;;
7607;SDS011;3845;48.120;11.534;2023-04-12T06:43:33;2.73;;;1.60;;
7607;SDS011;3845;48.120;11.534;2023-04-12T06:45:58;2.97;;;1.60;;
7607;SDS011;3845;48.120;11.534;2023-04-12T06:48:26;3.07;;;1.73;;
7607;SDS011;3845;48.120;11.534;2023-04-12T06:50:52;2.63;;;1.63;;
7607;SDS011;3845;48.120;11.534;2023-04-12T06:53:17;1.60;;;1.50;;
7607;SDS011;3845;48.120;11.534;2023-04-12T06:55:42;2.10;;;1.60;;
7607;SDS011;3845;48.120;11.534;2023-04-12T06:58:07;2.30;;;1.40;;
7607;SDS011;3845;48.120;11.534;2023-04-12T07:00:33;2.37;;;1.60;;
7607;SDS011;3845;48.120;11.534;2023-04-12T07:02:58;2.97;;;1.70;;
7607;SDS011;3845;48.120;11.534;2023-04-12T07:05:24;1.53;;;1.40;;
7607;SDS011;3845;48.120;11.534;2023-04-12T07:07:49;2.20;;;1.33;;
7607;SDS011;3845;48.120;11.534;2023-04-12T07:10:14;2.73;;;1.60;;
7607;SDS011;3845;48.120;11.534;2023-04-12T07:12:40;2.30;;;1.70;;
7607;SDS011;3845;48.120;11.534;2023-04-12T07:15:06;1.80;;;1.57;;
7607;SDS011;3845;48.120;11.534;2023-04-12T07:17:32;1.93;;;1.53;;
7607;SDS011;3845;48.120;11.534;2023-04-12T07:19:57;2.20;;;1.43;;
7607;SDS011;3845;48.120;11.534;2023-04-12T07:22:23;1.90;;;1.40;;
7607;SDS011;3845;48.120;11.534;2023-04-12T07:24:49;2.10;;;1.70;;
7607;SDS011;3845;48.120;11.534;2023-04-12T07:27:14;2.53;;;1.80;;
7607;SDS011;3845;48.120;11.534;2023-04-12T07:29:40;2.70;;;1.70;;
7607;SDS011;3845;48.120;11.534;2023-04-12T07:32:05;2.77;;;1.70;;
7607;SDS011;3845;48.120;11.534;2023-04-12T07:34:31;1.97;;;1.57;;
7607;SDS011;3845;48.120;11.534;2023-04-12T07:36:57;2.23;;;1.70;;
7607;SDS011;3845;48.120;11.534;2023-04-12T07:39:22;1.83;;;1.50;;
7607;SDS011;3845;48.120;11.534;2023-04-12T07:41:48;1.70;;;1.50;;
7607;SDS011;3845;48.120;11.534;2023-04-12T07:44:13;2.83;;;1.50;;
7607;SDS011;3845;48.120;11.534;2023-04-12T07:46:39;2.33;;;1.40;;
7607;SDS011;3845;48.120;11.534;2023-04-12T07:49:05;2.60;;;1.43;;
7607;SDS011;3845;48.120;11.534;2023-04-12T07:51:31;2.53;;;1.80;;
7607;SDS011;3845;48.120;11.534;2023-04-12T07:53:56;2.43;;;1.60;;
7607;SDS011;3845;48.120;11.534;2023-04-12T07:56:22;2.33;;;1.60;;
7607;SDS011;3845;48.120;11.534;2023-04-12T07:58:47;1.97;;;1.40;;
7607;SDS011;3845;48.120;11.534;2023-04-12T08:01:13;2.03;;;1.40;;
7607;SDS011;3845;48.120;11.534;2023-04-12T08:03:39;2.63;;;1.57;;
7607;SDS011;3845;48.120;11.534;2023-04-12T08:06:04;1.90;;;1.50;;
7607;SDS011;3845;48.120;11.534;2023-04-12T08:08:30;2.43;;;1.57;;
7607;SDS011;3845;48.120;11.534;2023-04-12T08:10:55;2.33;;;1.40;;
7607;SDS011;3845;48.120;11.534;2023-04-12T08:13:21;2.50;;;1.70;;
7607;SDS011;3845;48.120;11.534;2023-04-12T08:15:46;1.70;;;1.40;;
7607;SDS011;3845;48.120;11.534;2023-04-12T08:18:12;1.53;;;1.30;;
7607;SDS011;3845;48.120;11.534;2023-04-12T08:20:37;2.77;;;1.70;;
7607;SDS011;3845;48.120;11.534;2023-04-12T08:23:07;1.77;;;1.50;;
7607;SDS011;3845;48.120;11.534;2023-04-12T08:25:33;1.53;;;1.30;;
7607;SDS011;3845;48.120;11.534;2023-04-12T08:27:59;2.37;;;1.50;;
7607;SDS011;3845;48.120;11.534;2023-04-12T08:30:24;1.47;;;1.33;;
7607;SDS011;3845;48.120;11.534;2023-04-12T08:32:51;2.90;;;1.40;;
7607;SDS011;3845;48.120;11.534;2023-04-12T08:35:17;1.63;;;1.40;;
7607;SDS011;3845;48.120;11.534;2023-04-12T08:37:43;2.10;;;1.60;;
7607;SDS011;3845;48.120;11.534;2023-04-12T08:40:08;3.53;;;1.50;;
7607;SDS011;3845;48.120;11.534;2023-04-12T08:42:34;3.30;;;1.50;;
7607;SDS011;3845;48.120;11.534;2023-04-12T08:45:08;1.83;;;1.37;;
7607;SDS011;3845;48.120;11.534;2023-04-12T08:47:36;2.03;;;1.50;;
7607;SDS011;3845;48.120;11.534;2023-04-12T08:50:04;2.00;;;1.40;;
7607;SDS011;3845;48.120;11.534;2023-04-12T08:52:33;1.77;;;1.50;;
7607;SDS011;3845;48.120;11.534;2023-04-12T08:55:01;1.50;;;1.37;;
7607;SDS011;3845;48.120;11.534;2023-04-12T08:57:27;1.93;;;1.50;;
7607;SDS011;3845;48.120;11.534;2023-04-12T08:59:53;2.17;;;1.40;;
7607;SDS011;3845;48.120;11.534;2023-04-12T09:02:18;1.80;;;1.37;;
7607;SDS011;3845;48.120;11.534;2023-04-12T09:04:47;1.50;;;1.27;;
7607;SDS011;3845;48.120;11.534;2023-04-12T09:07:17;1.77;;;1.30;;
7607;SDS011;3845;48.120;11.534;2023-04-12T09:09:43;1.50;;;1.40;;
7607;SDS011;3845;48.120;11.534;2023-04-12T09:12:10;1.90;;;1.50;;
7607;SDS011;3845;48.120;11.534;2023-04-12T09:14:36;2.87;;;1.80;;
7607;SDS011;3845;48.120;11.534;2023-04-12T09:17:03;2.10;;;1.60;;
7607;SDS011;3845;48.120;11.534;2023-04-12T09:19:32;1.83;;;1.40;;
7607;SDS011;3845;48.120;11.534;2023-04-12T09:21:58;2.03;;;1.60;;
7607;SDS011;3845;48.120;11.534;2023-04-12T09:24:24;2.67;;;1.63;;
7607;SDS011;3845;48.120;11.534;2023-04-12T09:27:05;2.43;;;1.50;;
7607;SDS011;3845;48.120;11.534;2023-04-12T09:29:31;1.70;;;1.60;;
7607;SDS011;3845;48.120;11.534;2023-04-12T09:34:30;4.23;;;1.90;;
7607;SDS011;3845;48.120;11.534;2023-04-12T09:36:56;2.43;;;1.60;;
7607;SDS011;3845;48.120;11.534;2023-04-12T09:39:34;1.97;;;1.60;;
7607;SDS011;3845;48.120;11.534;2023-04-12T09:42:06;2.77;;;1.70;;
7607;SDS011;3845;48.120;11.534;2023-04-12T09:44:33;1.93;;;1.53;;
7607;SDS011;3845;48.120;11.534;2023-04-12T09:46:58;2.63;;;1.50;;
7607;SDS011;3845;48.120;11.534;2023-04-12T09:49:39;1.83;;;1.30;;
7607;SDS011;3845;48.120;11.534;2023-04-12T09:52:12;3.57;;;1.30;;
7607;SDS011;3845;48.120;11.534;2023-04-12T09:54:45;2.00;;;1.50;;
7607;SDS011;3845;48.120;11.534;2023-04-12T09:57:12;2.10;;;1.47;;
7607;SDS011;3845;48.120;11.534;2023-04-12T09:59:38;2.07;;;1.70;;
7607;SDS011;3845;48.120;11.534;2023-04-12T10:02:13;2.63;;;1.73;;
7607;SDS011;3845;48.120;11.534;2023-04-12T10:04:40;1.50;;;1.40;;
7607;SDS011;3845;48.120;11.534;2023-04-12T10:07:06;2.13;;;1.60;;
7607;SDS011;3845;48.120;11.534;2023-04-12T10:09:32;1.90;;;1.50;;
7607;SDS011;3845;48.120;11.534;2023-04-12T10:11:58;1.80;;;1.50;;
7607;SDS011;3845;48.120;11.534;2023-04-12T10:14:26;1.47;;;1.30;;
7607;SDS011;3845;48.120;11.534;2023-04-12T10:16:54;2.90;;;1.60;;
7607;SDS011;3845;48.120;11.534;2023-04-12T10:19:21;2.07;;;1.50;;
7607;SDS011;3845;48.120;11.534;2023-04-12T10:21:48;2.57;;;1.53;;
7607;SDS011;3845;48.120;11.534;2023-04-12T10:24:13;2.20;;;1.40;;
7607;SDS011;3845;48.120;11.534;2023-04-12T10:26:40;2.10;;;1.60;;
7607;SDS011;3845;48.120;11.534;2023-04-12T10:32:22;1.70;;;1.60;;
7607;SDS011;3845;48.120;11.534;2023-04-12T10:34:51;3.10;;;2.00;;
7607;SDS011;3845;48.120;11.534;2023-04-12T10:37:18;2.63;;;1.70;;
7607;SDS011;3845;48.120;11.534;2023-04-12T10:39:44;2.33;;;1.67;;
7607;SDS011;3845;48.120;11.534;2023-04-12T10:42:17;2.07;;;1.40;;
7607;SDS011;3845;48.120;11.534;2023-04-12T10:44:43;3.10;;;1.40;;
7607;SDS011;3845;48.120;11.534;2023-04-12T10:47:09;2.43;;;1.40;;
7607;SDS011;3845;48.120;11.534;2023-04-12T10:49:35;1.40;;;1.20;;
7607;SDS011;3845;48.120;11.534;2023-04-12T10:54:33;1.50;;;1.30;;
7607;SDS011;3845;48.120;11.534;2023-04-12T10:56:59;1.20;;;1.10;;
7607;SDS011;3845;48.120;11.534;2023-04-12T10:59:25;1.87;;;1.43;;
7607;SDS011;3845;48.120;11.534;2023-04-12T11:02:16;1.60;;;1.50;;
7607;SDS011;3845;48.120;11.534;2023-04-12T11:07:43;1.53;;;1.20;;
7607;SDS011;3845;48.120;11.534;2023-04-12T11:10:16;1.30;;;1.20;;
7607;SDS011;3845;48.120;11.534;2023-04-12T11:12:47;1.37;;;1.10;;
7607;SDS011;3845;48.120;11.534;2023-04-12T11:15:14;1.63;;;1.30;;
7607;SDS011;3845;48.120;11.534;2023-04-12T11:17:39;1.30;;;1.20;;
7607;SDS011;3845;48.120;11.534;2023-04-12T11:20:05;2.43;;;1.27;;
7607;SDS011;3845;48.120;11.534;2023-04-12T11:22:35;1.80;;;1.30;;
7607;SDS011;3845;48.120;11.534;2023-04-12T11:25:02;1.30;;;1.20;;
7607;SDS011;3845;48.120;11.534;2023-04-12T11:27:28;1.30;;;1.20;;
7607;SDS011;3845;48.120;11.534;2023-04-12T11:29:54;1.50;;;1.20;;
7607;SDS011;3845;48.120;11.534;2023-04-12T11:32:21;1.73;;;1.20;;
7607;SDS011;3845;48.120;11.534;2023-04-12T11:34:48;1.70;;;1.20;;
7607;SDS011;3845;48.120;11.534;2023-04-12T11:37:14;2.20;;;1.47;;
7607;SDS011;3845;48.120;11.534;2023-04-12T11:39:43;2.63;;;1.23;;
7607;SDS011;3845;48.120;11.534;2023-04-12T11:42:16;1.57;;;1.40;;
7607;SDS011;3845;48.120;11.534;2023-04-12T11:44:43;2.57;;;1.40;;
7607;SDS011;3845;48.120;11.534;2023-04-12T11:47:12;3.27;;;1.43;;
7607;SDS011;3845;48.120;11.534;2023-04-12T11:49:43;1.50;;;1.20;;
7607;SDS011;3845;48.120;11.534;2023-04-12T11:52:13;1.50;;;1.30;;
7607;SDS011;3845;48.120;11.534;2023-04-12T11:54:49;1.57;;;1.33;;
7607;SDS011;3845;48.120;11.534;2023-04-12T11:57:18;2.33;;;1.60;;
7607;SDS011;3845;48.120;11.534;2023-04-12T11:59:46;2.10;;;1.70;;
7607;SDS011;3845;48.120;11.534;2023-04-12T12:02:13;3.27;;;1.73;;
7607;SDS011;3845;48.120;11.534;2023-04-12T12:04:44;1.70;;;1.40;;
7607;SDS011;3845;48.120;11.534;2023-04-12T12:07:11;2.17;;;1.40;;
7607;SDS011;3845;48.120;11.534;2023-04-12T12:09:36;1.87;;;1.60;;
7607;SDS011;3845;48.120;11.534;2023-04-12T12:12:03;1.63;;;1.40;;
7607;SDS011;3845;48.120;11.534;2023-04-12T12:14:31;1.70;;;1.50;;
7607;SDS011;3845;48.120;11.534;2023-04-12T12:16:58;1.53;;;1.40;;
7607;SDS011;3845;48.120;11.534;2023-04-12T12:19:30;2.13;;;1.60;;
7607;SDS011;3845;48.120;11.534;2023-04-12T12:24:38;2.03;;;1.70;;
7607;SDS011;3845;48.120;11.534;2023-04-12T12:27:08;1.83;;;1.60;;
7607;SDS011;3845;48.120;11.534;2023-04-12T12:29:37;1.57;;;1.40;;
7607;SDS011;3845;48.120;11.534;2023-04-12T12:32:08;1.90;;;1.50;;
7607;SDS011;3845;48.120;11.534;2023-04-12T12:34:34;1.60;;;1.50;;
7607;SDS011;3845;48.120;11.534;2023-04-12T12:37:00;1.90;;;1.60;;
7607;SDS011;3845;48.120;11.534;2023-04-12T12:39:25;3.00;;;1.53;;
7607;SDS011;3845;48.120;11.534;2023-04-12T12:41:54;1.70;;;1.50;;
7607;SDS011;3845;48.120;11.534;2023-04-12T12:44:23;1.53;;;1.33;;
7607;SDS011;3845;48.120;11.534;2023-04-12T12:46:48;2.77;;;1.50;;
7607;SDS011;3845;48.120;11.534;2023-04-12T12:49:14;1.60;;;1.47;;
7607;SDS011;3845;48.120;11.534;2023-04-12T12:51:40;1.97;;;1.40;;
7607;SDS011;3845;48.120;11.534;2023-04-12T12:54:06;2.57;;;1.30;;
7607;SDS011;3845;48.120;11.534;2023-04-12T12:56:31;1.63;;;1.20;;
7607;SDS011;3845;48.120;11.534;2023-04-12T12:58:57;1.30;;;1.20;;
7607;SDS011;3845;48.120;11.534;2023-04-12T13:01:22;4.27;;;2.10;;
7607;SDS011;3845;48.120;11.534;2023-04-12T13:03:47;2.67;;;1.70;;
7607;SDS011;3845;48.120;11.534;2023-04-12T13:06:12;4.10;;;3.33;;
7607;SDS011;3845;48.120;11.534;2023-04-12T13:08:38;2.70;;;2.37;;
7607;SDS011;3845;48.120;11.534;2023-04-12T13:11:03;1.97;;;1.60;;
7607;SDS011;3845;48.120;11.534;2023-04-12T13:13:28;1.73;;;1.30;;
7607;SDS011;3845;48.120;11.534;2023-04-12T13:15:54;2.20;;;1.77;;
7607;SDS011;3845;48.120;11.534;2023-04-12T13:18:19;1.80;;;1.27;;
7607;SDS011;3845;48.120;11.534;2023-04-12T13:20:45;1.20;;;1.10;;
7607;SDS011;3845;48.120;11.534;2023-04-12T13:23:10;2.40;;;1.27;;
7607;SDS011;3845;48.120;11.534;2023-04-12T13:25:35;2.13;;;1.40;;
7607;SDS011;3845;48.120;11.534;2023-04-12T13:28:01;1.43;;;1.10;;
7607;SDS011;3845;48.120;11.534;2023-04-12T13:30:26;2.63;;;1.83;;
7607;SDS011;3845;48.120;11.534;2023-04-12T13:32:54;3.53;;;2.93;;
7607;SDS011;3845;48.120;11.534;2023-04-12T13:35:19;2.30;;;1.50;;
7607;SDS011;3845;48.120;11.534;2023-04-12T13:37:45;1.80;;;1.10;;
7607;SDS011;3845;48.120;11.534;2023-04-12T13:40:10;1.73;;;1.30;;
7607;SDS011;3845;48.120;11.534;2023-04-12T13:42:36;1.93;;;1.13;;
7607;SDS011;3845;48.120;11.534;2023-04-12T13:45:01;2.40;;;1.20;;
7607;SDS011;3845;48.120;11.534;2023-04-12T13:47:27;1.50;;;1.20;;
7607;SDS011;3845;48.120;11.534;2023-04-12T13:49:53;1.67;;;1.20;;
7607;SDS011;3845;48.120;11.534;2023-04-12T13:52:18;1.93;;;1.53;;
7607;SDS011;3845;48.120;11.534;2023-04-12T13:54:44;2.07;;;1.80;;
7607;SDS011;3845;48.120;11.534;2023-04-12T13:57:09;3.10;;;1.70;;
7607;SDS011;3845;48.120;11.534;2023-04-12T13:59:34;3.50;;;1.50;;
7607;SDS011;3845;48.120;11.534;2023-04-12T14:02:00;1.57;;;1.30;;
7607;SDS011;3845;48.120;11.534;2023-04-12T14:04:26;3.60;;;2.30;;
7607;SDS011;3845;48.120;11.534;2023-04-12T14:06:52;2.73;;;1.80;;
7607;SDS011;3845;48.120;11.534;2023-04-12T14:09:27;2.43;;;1.80;;
7607;SDS011;3845;48.120;11.534;2023-04-12T14:11:54;2.73;;;1.40;;
7607;SDS011;3845;48.120;11.534;2023-04-12T14:14:22;2.37;;;1.50;;
7607;SDS011;3845;48.120;11.534;2023-04-12T14:16:48;1.77;;;1.17;;
7607;SDS011;3845;48.120;11.534;2023-04-12T14:19:15;2.03;;;1.20;;
7607;SDS011;3845;48.120;11.534;2023-04-12T14:21:40;3.20;;;1.23;;
7607;SDS011;3845;48.120;11.534;2023-04-12T14:24:05;4.43;;;3.23;;
7607;SDS011;3845;48.120;11.534;2023-04-12T14:26:31;5.10;;;3.70;;
7607;SDS011;3845;48.120;11.534;2023-04-12T14:28:56;4.57;;;2.80;;
7607;SDS011;3845;48.120;11.534;2023-04-12T14:31:21;2.73;;;2.20;;
7607;SDS011;3845;48.120;11.534;2023-04-12T14:33:47;2.47;;;1.90;;
7607;SDS011;3845;48.120;11.534;2023-04-12T14:36:12;1.67;;;1.40;;
7607;SDS011;3845;48.120;11.534;2023-04-12T14:38:37;1.93;;;1.30;;
7607;SDS011;3845;48.120;11.534;2023-04-12T14:41:06;1.40;;;1.30;;
7607;SDS011;3845;48.120;11.534;2023-04-12T14:43:33;1.90;;;1.30;;
7607;SDS011;3845;48.120;11.534;2023-04-12T14:45:58;2.67;;;1.60;;
7607;SDS011;3845;48.120;11.534;2023-04-12T14:48:23;2.03;;;1.50;;
7607;SDS011;3845;48.120;11.534;2023-04-12T14:50:48;1.60;;;1.43;;
7607;SDS011;3845;48.120;11.534;2023-04-12T14:53:14;2.90;;;1.43;;
7607;SDS011;3845;48.120;11.534;2023-04-12T14:55:40;1.93;;;1.40;;
7607;SDS011;3845;48.120;11.534;2023-04-12T14:58:05;3.53;;;1.43;;
7607;SDS011;3845;48.120;11.534;2023-04-12T15:00:32;1.90;;;1.47;;
7607;SDS011;3845;48.120;11.534;2023-04-12T15:02:57;2.30;;;1.50;;
7607;SDS011;3845;48.120;11.534;2023-04-12T15:05:24;3.30;;;1.60;;
7607;SDS011;3845;48.120;11.534;2023-04-12T15:07:51;1.60;;;1.27;;
7607;SDS011;3845;48.120;11.534;2023-04-12T15:10:17;2.17;;;1.30;;
7607;SDS011;3845;48.120;11.534;2023-04-12T15:12:44;1.77;;;1.43;;
7607;SDS011;3845;48.120;11.534;2023-04-12T15:15:10;2.07;;;1.40;;
7607;SDS011;3845;48.120;11.534;2023-04-12T15:17:35;2.27;;;1.53;;
7607;SDS011;3845;48.120;11.534;2023-04-12T15:20:01;2.23;;;1.50;;
7607;SDS011;3845;48.120;11.534;2023-04-12T15:22:36;2.80;;;1.43;;